sensor_id;sensor_type;location;lat;lon;timestamp;P1;durP1;ratioP1;P2;durP2;ratioP2
24557;SDS011;12726;49.148;8.582;2024-03-23T00:55:07;7.30;;;5.32;;
24557;SDS011;12726;49.148;8.582;2024-03-23T00:57:52;9.75;;;4.25;;
24557;SDS011;12726;49.148;8.582;2024-03-23T01:00:36;6.95;;;5.15;;
24557;SDS011;12726;49.148;8.582;2024-03-23T01:03:21;10.02;;;5.05;;
24557;SDS011;12726;49.148;8.582;2024-03-23T01:06:05;9.57;;;6.10;;
24557;SDS011;12726;49.148;8.582;2024-03-23T01:08:50;9.13;;;5.85;;
24557;SDS011;12726;49.148;8.582;2024-03-23T01:11:36;8.05;;;5.32;;
24557;SDS011;12726;49.148;8.582;2024-03-23T01:14:21;8.93;;;5.28;;
24557;SDS011;12726;49.148;8.582;2024-03-23T01:17:06;9.38;;;5.45;;
24557;SDS011;12726;49.148;8.582;2024-03-23T01:19:51;8.35;;;5.63;;
24557;SDS011;12726;49.148;8.582;2024-03-23T01:22:36;7.65;;;5.38;;
24557;SDS011;12726;49.148;8.582;2024-03-23T01:25:20;7.43;;;4.90;;
24557;SDS011;12726;49.148;8.582;2024-03-23T01:28:05;8.60;;;5.82;;
24557;SDS011;12726;49.148;8.582;2024-03-23T01:30:50;7.80;;;5.68;;
24557;SDS011;12726;49.148;8.582;2024-03-23T01:33:35;6.93;;;4.78;;
24557;SDS011;12726;49.148;8.582;2024-03-23T01:36:19;7.28;;;5.30;;
24557;SDS011;12726;49.148;8.582;2024-03-23T01:39:04;7.50;;;5.55;;
24557;SDS011;12726;49.148;8.582;2024-03-23T01:41:48;7.25;;;4.60;;
24557;SDS011;12726;49.148;8.582;2024-03-23T01:44:33;6.05;;;3.90;;
24557;SDS011;12726;49.148;8.582;2024-03-23T01:47:17;5.13;;;3.10;;
24557;SDS011;12726;49.148;8.582;2024-03-23T01:50:02;5.05;;;2.60;;
24557;SDS011;12726;49.148;8.582;2024-03-23T01:52:47;5.78;;;2.95;;
24557;SDS011;12726;49.148;8.582;2024-03-23T01:55:33;5.78;;;3.15;;
24557;SDS011;12726;49.148;8.582;2024-03-23T01:58:17;3.60;;;2.90;;
24557;SDS011;12726;49.148;8.582;2024-03-23T02:01:02;5.05;;;3.10;;
24557;SDS011;12726;49.148;8.582;2024-03-23T02:03:47;5.53;;;3.13;;
24557;SDS011;12726;49.148;8.582;2024-03-23T02:06:32;6.15;;;3.35;;
24557;SDS011;12726;49.148;8.582;2024-03-23T02:09:17;4.95;;;3.15;;
24557;SDS011;12726;49.148;8.582;2024-03-23T02:12:02;5.10;;;3.13;;
24557;SDS011;12726;49.148;8.582;2024-03-23T02:14:47;4.30;;;3.28;;
24557;SDS011;12726;49.148;8.582;2024-03-23T02:17:33;6.10;;;3.25;;
24557;SDS011;12726;49.148;8.582;2024-03-23T02:20:18;4.10;;;3.00;;
24557;SDS011;12726;49.148;8.582;2024-03-23T02:23:06;5.80;;;3.47;;
24557;SDS011;12726;49.148;8.582;2024-03-23T02:25:56;5.75;;;3.38;;
24557;SDS011;12726;49.148;8.582;2024-03-23T02:28:41;8.57;;;3.80;;
24557;SDS011;12726;49.148;8.582;2024-03-23T02:31:25;4.43;;;3.10;;
24557;SDS011;12726;49.148;8.582;2024-03-23T02:34:11;5.18;;;3.33;;
24557;SDS011;12726;49.148;8.582;2024-03-23T02:36:55;7.43;;;3.60;;
24557;SDS011;12726;49.148;8.582;2024-03-23T02:39:41;3.83;;;3.00;;
24557;SDS011;12726;49.148;8.582;2024-03-23T02:42:24;4.70;;;3.70;;
24557;SDS011;12726;49.148;8.582;2024-03-23T02:45:09;4.65;;;3.47;;
24557;SDS011;12726;49.148;8.582;2024-03-23T02:47:53;4.97;;;3.40;;
24557;SDS011;12726;49.148;8.582;2024-03-23T02:50:39;4.63;;;3.25;;
24557;SDS011;12726;49.148;8.582;2024-03-23T02:53:23;5.78;;;3.20;;
24557;SDS011;12726;49.148;8.582;2024-03-23T02:56:08;5.70;;;3.40;;
24557;SDS011;12726;49.148;8.582;2024-03-23T02:58:52;5.55;;;3.38;;
24557;SDS011;12726;49.148;8.582;2024-03-23T03:01:37;5.97;;;3.72;;
24557;SDS011;12726;49.148;8.582;2024-03-23T03:04:22;8.25;;;3.88;;
24557;SDS011;12726;49.148;8.582;2024-03-23T03:07:06;8.25;;;3.75;;
24557;SDS011;12726;49.148;8.582;2024-03-23T03:09:51;6.13;;;3.92;;
24557;SDS011;12726;49.148;8.582;2024-03-23T03:12:35;5.68;;;3.58;;
24557;SDS011;12726;49.148;8.582;2024-03-23T03:15:21;6.75;;;4.03;;
24557;SDS011;12726;49.148;8.582;2024-03-23T03:18:05;6.75;;;4.00;;
24557;SDS011;12726;49.148;8.582;2024-03-23T03:20:50;7.68;;;4.07;;
24557;SDS011;12726;49.148;8.582;2024-03-23T03:23:38;7.90;;;3.92;;
24557;SDS011;12726;49.148;8.582;2024-03-23T03:26:23;7.20;;;3.42;;
24557;SDS011;12726;49.148;8.582;2024-03-23T03:29:08;5.55;;;3.95;;
24557;SDS011;12726;49.148;8.582;2024-03-23T03:31:53;5.90;;;3.65;;
24557;SDS011;12726;49.148;8.582;2024-03-23T03:34:37;8.60;;;4.35;;
24557;SDS011;12726;49.148;8.582;2024-03-23T03:37:22;6.43;;;4.03;;
24557;SDS011;12726;49.148;8.582;2024-03-23T03:40:07;6.47;;;4.72;;
24557;SDS011;12726;49.148;8.582;2024-03-23T03:42:53;9.07;;;4.68;;
24557;SDS011;12726;49.148;8.582;2024-03-23T03:45:37;6.57;;;4.57;;
24557;SDS011;12726;49.148;8.582;2024-03-23T03:48:23;9.43;;;5.10;;
24557;SDS011;12726;49.148;8.582;2024-03-23T03:51:07;7.57;;;4.57;;
24557;SDS011;12726;49.148;8.582;2024-03-23T03:53:51;7.82;;;5.43;;
24557;SDS011;12726;49.148;8.582;2024-03-23T03:56:35;9.68;;;5.68;;
24557;SDS011;12726;49.148;8.582;2024-03-23T03:59:21;9.77;;;5.95;;
24557;SDS011;12726;49.148;8.582;2024-03-23T04:02:05;9.18;;;6.15;;
24557;SDS011;12726;49.148;8.582;2024-03-23T04:04:50;11.35;;;6.85;;
24557;SDS011;12726;49.148;8.582;2024-03-23T04:07:34;12.23;;;5.97;;
24557;SDS011;12726;49.148;8.582;2024-03-23T04:10:19;12.73;;;6.55;;
24557;SDS011;12726;49.148;8.582;2024-03-23T04:13:03;14.07;;;6.47;;
24557;SDS011;12726;49.148;8.582;2024-03-23T04:15:49;12.57;;;6.80;;
24557;SDS011;12726;49.148;8.582;2024-03-23T04:18:37;10.98;;;6.78;;
24557;SDS011;12726;49.148;8.582;2024-03-23T04:21:23;9.45;;;6.55;;
24557;SDS011;12726;49.148;8.582;2024-03-23T04:24:07;12.35;;;7.15;;
24557;SDS011;12726;49.148;8.582;2024-03-23T04:26:52;11.90;;;7.35;;
24557;SDS011;12726;49.148;8.582;2024-03-23T04:29:36;12.73;;;7.03;;
24557;SDS011;12726;49.148;8.582;2024-03-23T04:32:24;11.25;;;7.22;;
24557;SDS011;12726;49.148;8.582;2024-03-23T04:35:08;11.13;;;6.80;;
24557;SDS011;12726;49.148;8.582;2024-03-23T04:37:54;17.38;;;7.18;;
24557;SDS011;12726;49.148;8.582;2024-03-23T04:40:39;11.50;;;7.28;;
24557;SDS011;12726;49.148;8.582;2024-03-23T04:43:25;10.07;;;6.45;;
24557;SDS011;12726;49.148;8.582;2024-03-23T04:46:11;12.45;;;6.57;;
24557;SDS011;12726;49.148;8.582;2024-03-23T04:48:56;9.63;;;6.30;;
24557;SDS011;12726;49.148;8.582;2024-03-23T04:51:41;11.70;;;6.28;;
24557;SDS011;12726;49.148;8.582;2024-03-23T04:54:29;7.85;;;5.32;;
24557;SDS011;12726;49.148;8.582;2024-03-23T04:57:15;10.18;;;5.80;;
24557;SDS011;12726;49.148;8.582;2024-03-23T05:00:01;8.98;;;5.60;;
24557;SDS011;12726;49.148;8.582;2024-03-23T05:02:47;7.30;;;5.28;;
24557;SDS011;12726;49.148;8.582;2024-03-23T05:05:32;7.93;;;4.78;;
24557;SDS011;12726;49.148;8.582;2024-03-23T05:08:16;7.38;;;4.43;;
24557;SDS011;12726;49.148;8.582;2024-03-23T05:11:01;5.35;;;3.67;;
24557;SDS011;12726;49.148;8.582;2024-03-23T05:13:46;7.05;;;3.10;;
24557;SDS011;12726;49.148;8.582;2024-03-23T05:16:31;4.68;;;3.05;;
24557;SDS011;12726;49.148;8.582;2024-03-23T05:19:16;4.47;;;2.03;;
24557;SDS011;12726;49.148;8.582;2024-03-23T05:22:00;2.17;;;1.50;;
24557;SDS011;12726;49.148;8.582;2024-03-23T05:24:45;2.67;;;1.63;;
24557;SDS011;12726;49.148;8.582;2024-03-23T05:27:31;3.58;;;1.48;;
24557;SDS011;12726;49.148;8.582;2024-03-23T05:30:17;3.25;;;1.70;;
24557;SDS011;12726;49.148;8.582;2024-03-23T05:33:01;2.33;;;1.50;;
24557;SDS011;12726;49.148;8.582;2024-03-23T05:35:56;3.65;;;1.50;;
24557;SDS011;12726;49.148;8.582;2024-03-23T05:38:41;2.22;;;1.38;;
24557;SDS011;12726;49.148;8.582;2024-03-23T05:41:26;4.13;;;1.40;;
24557;SDS011;12726;49.148;8.582;2024-03-23T05:44:10;1.92;;;1.25;;
24557;SDS011;12726;49.148;8.582;2024-03-23T05:46:55;4.18;;;1.42;;
24557;SDS011;12726;49.148;8.582;2024-03-23T05:49:39;1.67;;;1.17;;
24557;SDS011;12726;49.148;8.582;2024-03-23T05:52:26;1.75;;;1.20;;
24557;SDS011;12726;49.148;8.582;2024-03-23T05:55:10;1.55;;;0.80;;
24557;SDS011;12726;49.148;8.582;2024-03-23T05:57:55;1.48;;;0.95;;
24557;SDS011;12726;49.148;8.582;2024-03-23T06:00:40;1.67;;;1.05;;
24557;SDS011;12726;49.148;8.582;2024-03-23T06:03:25;1.95;;;1.00;;
24557;SDS011;12726;49.148;8.582;2024-03-23T06:06:10;1.38;;;0.90;;
24557;SDS011;12726;49.148;8.582;2024-03-23T06:08:56;1.83;;;0.80;;
24557;SDS011;12726;49.148;8.582;2024-03-23T06:11:40;1.10;;;0.93;;
24557;SDS011;12726;49.148;8.582;2024-03-23T06:14:25;1.02;;;0.70;;
24557;SDS011;12726;49.148;8.582;2024-03-23T06:17:10;1.75;;;0.80;;
24557;SDS011;12726;49.148;8.582;2024-03-23T06:19:54;1.23;;;0.75;;
24557;SDS011;12726;49.148;8.582;2024-03-23T06:22:39;1.00;;;0.70;;
24557;SDS011;12726;49.148;8.582;2024-03-23T06:25:23;2.03;;;0.75;;
24557;SDS011;12726;49.148;8.582;2024-03-23T06:28:08;0.68;;;0.65;;
24557;SDS011;12726;49.148;8.582;2024-03-23T06:30:52;1.27;;;0.60;;
24557;SDS011;12726;49.148;8.582;2024-03-23T06:33:37;0.65;;;0.65;;
24557;SDS011;12726;49.148;8.582;2024-03-23T06:36:21;0.75;;;0.70;;
24557;SDS011;12726;49.148;8.582;2024-03-23T06:39:06;1.98;;;0.65;;
24557;SDS011;12726;49.148;8.582;2024-03-23T06:41:53;1.80;;;1.20;;
24557;SDS011;12726;49.148;8.582;2024-03-23T06:44:40;1.70;;;0.88;;
24557;SDS011;12726;49.148;8.582;2024-03-23T06:47:23;0.50;;;0.50;;
24557;SDS011;12726;49.148;8.582;2024-03-23T06:50:09;0.35;;;0.35;;
24557;SDS011;12726;49.148;8.582;2024-03-23T06:52:54;0.30;;;0.30;;
24557;SDS011;12726;49.148;8.582;2024-03-23T06:55:39;0.20;;;0.20;;
24557;SDS011;12726;49.148;8.582;2024-03-23T06:58:23;0.50;;;0.40;;
24557;SDS011;12726;49.148;8.582;2024-03-23T07:01:09;0.20;;;0.20;;
24557;SDS011;12726;49.148;8.582;2024-03-23T07:03:53;0.20;;;0.20;;
24557;SDS011;12726;49.148;8.582;2024-03-23T07:06:44;0.20;;;0.20;;
24557;SDS011;12726;49.148;8.582;2024-03-23T07:09:29;0.20;;;0.20;;
24557;SDS011;12726;49.148;8.582;2024-03-23T07:12:14;0.82;;;0.22;;
24557;SDS011;12726;49.148;8.582;2024-03-23T07:14:58;0.20;;;0.20;;
24557;SDS011;12726;49.148;8.582;2024-03-23T07:17:46;0.20;;;0.20;;
24557;SDS011;12726;49.148;8.582;2024-03-23T07:20:30;0.22;;;0.22;;
24557;SDS011;12726;49.148;8.582;2024-03-23T07:23:16;0.20;;;0.10;;
24557;SDS011;12726;49.148;8.582;2024-03-23T07:26:00;0.25;;;0.25;;
24557;SDS011;12726;49.148;8.582;2024-03-23T07:28:47;0.22;;;0.13;;
24557;SDS011;12726;49.148;8.582;2024-03-23T07:31:33;0.20;;;0.20;;
24557;SDS011;12726;49.148;8.582;2024-03-23T07:34:18;0.20;;;0.20;;
24557;SDS011;12726;49.148;8.582;2024-03-23T07:37:03;0.30;;;0.30;;
24557;SDS011;12726;49.148;8.582;2024-03-23T07:39:47;0.68;;;0.20;;
24557;SDS011;12726;49.148;8.582;2024-03-23T07:42:32;0.20;;;0.20;;
24557;SDS011;12726;49.148;8.582;2024-03-23T07:45:16;0.20;;;0.20;;
24557;SDS011;12726;49.148;8.582;2024-03-23T07:48:01;0.45;;;0.30;;
24557;SDS011;12726;49.148;8.582;2024-03-23T07:50:45;0.25;;;0.25;;
24557;SDS011;12726;49.148;8.582;2024-03-23T07:53:34;0.68;;;0.30;;
24557;SDS011;12726;49.148;8.582;2024-03-23T07:56:19;0.20;;;0.20;;
24557;SDS011;12726;49.148;8.582;2024-03-23T07:59:05;1.58;;;0.80;;
24557;SDS011;12726;49.148;8.582;2024-03-23T08:01:49;14.30;;;6.20;;
24557;SDS011;12726;49.148;8.582;2024-03-23T08:04:34;1.83;;;0.70;;
24557;SDS011;12726;49.148;8.582;2024-03-23T08:07:18;2.45;;;0.90;;
24557;SDS011;12726;49.148;8.582;2024-03-23T08:10:03;1.17;;;0.82;;
24557;SDS011;12726;49.148;8.582;2024-03-23T08:12:48;2.40;;;0.73;;
24557;SDS011;12726;49.148;8.582;2024-03-23T08:15:33;3.03;;;1.17;;
24557;SDS011;12726;49.148;8.582;2024-03-23T08:18:17;4.82;;;1.17;;
24557;SDS011;12726;49.148;8.582;2024-03-23T08:21:03;4.13;;;0.90;;
24557;SDS011;12726;49.148;8.582;2024-03-23T08:23:48;4.13;;;1.30;;
24557;SDS011;12726;49.148;8.582;2024-03-23T08:26:33;2.95;;;1.10;;
24557;SDS011;12726;49.148;8.582;2024-03-23T08:29:17;2.20;;;0.82;;
24557;SDS011;12726;49.148;8.582;2024-03-23T08:32:02;1.67;;;0.98;;
24557;SDS011;12726;49.148;8.582;2024-03-23T08:34:47;4.05;;;1.10;;
24557;SDS011;12726;49.148;8.582;2024-03-23T08:37:32;3.78;;;1.08;;
24557;SDS011;12726;49.148;8.582;2024-03-23T08:40:16;2.58;;;0.90;;
24557;SDS011;12726;49.148;8.582;2024-03-23T08:43:01;2.90;;;1.33;;
24557;SDS011;12726;49.148;8.582;2024-03-23T08:45:45;4.70;;;1.58;;
24557;SDS011;12726;49.148;8.582;2024-03-23T08:48:30;1.70;;;0.90;;
24557;SDS011;12726;49.148;8.582;2024-03-23T08:51:15;5.88;;;1.58;;
24557;SDS011;12726;49.148;8.582;2024-03-23T08:54:01;8.57;;;1.60;;
24557;SDS011;12726;49.148;8.582;2024-03-23T08:56:46;5.30;;;1.50;;
24557;SDS011;12726;49.148;8.582;2024-03-23T08:59:31;7.50;;;2.10;;
24557;SDS011;12726;49.148;8.582;2024-03-23T09:02:15;5.75;;;1.75;;
24557;SDS011;12726;49.148;8.582;2024-03-23T09:05:00;4.95;;;1.30;;
24557;SDS011;12726;49.148;8.582;2024-03-23T09:07:47;4.90;;;1.40;;
24557;SDS011;12726;49.148;8.582;2024-03-23T09:10:37;4.40;;;1.52;;
24557;SDS011;12726;49.148;8.582;2024-03-23T09:13:22;6.63;;;1.63;;
24557;SDS011;12726;49.148;8.582;2024-03-23T09:16:07;7.15;;;1.95;;
24557;SDS011;12726;49.148;8.582;2024-03-23T09:18:53;5.45;;;1.48;;
24557;SDS011;12726;49.148;8.582;2024-03-23T09:21:37;4.78;;;1.60;;
24557;SDS011;12726;49.148;8.582;2024-03-23T09:24:21;5.03;;;1.98;;
24557;SDS011;12726;49.148;8.582;2024-03-23T09:27:07;5.25;;;2.30;;
24557;SDS011;12726;49.148;8.582;2024-03-23T09:29:51;6.20;;;1.90;;
24557;SDS011;12726;49.148;8.582;2024-03-23T09:32:36;8.70;;;3.53;;
24557;SDS011;12726;49.148;8.582;2024-03-23T09:35:20;7.97;;;2.67;;
24557;SDS011;12726;49.148;8.582;2024-03-23T09:38:05;8.82;;;2.85;;
24557;SDS011;12726;49.148;8.582;2024-03-23T09:40:52;7.55;;;3.50;;
24557;SDS011;12726;49.148;8.582;2024-03-23T09:43:38;7.07;;;2.60;;
24557;SDS011;12726;49.148;8.582;2024-03-23T09:46:22;5.43;;;2.20;;
24557;SDS011;12726;49.148;8.582;2024-03-23T09:49:07;5.55;;;1.88;;
24557;SDS011;12726;49.148;8.582;2024-03-23T09:51:53;5.57;;;2.20;;
24557;SDS011;12726;49.148;8.582;2024-03-23T09:54:38;5.25;;;1.75;;
24557;SDS011;12726;49.148;8.582;2024-03-23T09:57:23;9.35;;;2.30;;
24557;SDS011;12726;49.148;8.582;2024-03-23T10:00:08;6.03;;;1.70;;
24557;SDS011;12726;49.148;8.582;2024-03-23T10:02:55;7.57;;;1.95;;
24557;SDS011;12726;49.148;8.582;2024-03-23T10:05:41;5.72;;;1.85;;
24557;SDS011;12726;49.148;8.582;2024-03-23T10:08:25;6.88;;;2.03;;
24557;SDS011;12726;49.148;8.582;2024-03-23T10:11:14;5.43;;;2.10;;
24557;SDS011;12726;49.148;8.582;2024-03-23T10:13:59;7.35;;;2.20;;
24557;SDS011;12726;49.148;8.582;2024-03-23T10:16:44;10.60;;;2.28;;
24557;SDS011;12726;49.148;8.582;2024-03-23T10:19:31;9.05;;;2.20;;
24557;SDS011;12726;49.148;8.582;2024-03-23T10:22:20;7.25;;;2.78;;
24557;SDS011;12726;49.148;8.582;2024-03-23T10:25:08;11.27;;;2.80;;
24557;SDS011;12726;49.148;8.582;2024-03-23T10:27:58;6.45;;;1.60;;
24557;SDS011;12726;49.148;8.582;2024-03-23T10:30:43;6.60;;;1.80;;
24557;SDS011;12726;49.148;8.582;2024-03-23T10:33:28;10.52;;;2.35;;
24557;SDS011;12726;49.148;8.582;2024-03-23T10:36:14;6.78;;;1.50;;
24557;SDS011;12726;49.148;8.582;2024-03-23T10:39:00;8.40;;;2.10;;
24557;SDS011;12726;49.148;8.582;2024-03-23T10:41:45;7.10;;;1.50;;
24557;SDS011;12726;49.148;8.582;2024-03-23T10:44:31;4.22;;;1.65;;
24557;SDS011;12726;49.148;8.582;2024-03-23T10:47:15;5.53;;;1.88;;
24557;SDS011;12726;49.148;8.582;2024-03-23T10:50:00;5.10;;;1.80;;
24557;SDS011;12726;49.148;8.582;2024-03-23T10:52:48;8.38;;;1.67;;
24557;SDS011;12726;49.148;8.582;2024-03-23T10:55:33;7.25;;;2.25;;
24557;SDS011;12726;49.148;8.582;2024-03-23T10:58:30;4.15;;;1.67;;
24557;SDS011;12726;49.148;8.582;2024-03-23T11:01:17;6.20;;;1.92;;
24557;SDS011;12726;49.148;8.582;2024-03-23T11:04:02;3.67;;;1.63;;
24557;SDS011;12726;49.148;8.582;2024-03-23T11:06:46;2.55;;;1.52;;
24557;SDS011;12726;49.148;8.582;2024-03-23T11:15:10;5.05;;;1.67;;
24557;SDS011;12726;49.148;8.582;2024-03-23T11:18:02;6.72;;;1.60;;
24557;SDS011;12726;49.148;8.582;2024-03-23T11:20:49;4.22;;;1.40;;
24557;SDS011;12726;49.148;8.582;2024-03-23T11:23:33;3.03;;;1.20;;
24557;SDS011;12726;49.148;8.582;2024-03-23T11:26:18;4.95;;;1.40;;
24557;SDS011;12726;49.148;8.582;2024-03-23T11:29:14;6.20;;;1.95;;
24557;SDS011;12726;49.148;8.582;2024-03-23T11:32:00;3.63;;;1.30;;
24557;SDS011;12726;49.148;8.582;2024-03-23T11:34:47;6.72;;;1.58;;
24557;SDS011;12726;49.148;8.582;2024-03-23T11:37:32;4.55;;;1.50;;
24557;SDS011;12726;49.148;8.582;2024-03-23T11:40:19;3.55;;;1.10;;
24557;SDS011;12726;49.148;8.582;2024-03-23T11:43:06;8.35;;;1.35;;
24557;SDS011;12726;49.148;8.582;2024-03-23T11:45:55;3.03;;;0.93;;
24557;SDS011;12726;49.148;8.582;2024-03-23T11:48:41;4.15;;;1.10;;
24557;SDS011;12726;49.148;8.582;2024-03-23T11:51:35;6.53;;;1.02;;
24557;SDS011;12726;49.148;8.582;2024-03-23T11:54:22;3.25;;;1.10;;
24557;SDS011;12726;49.148;8.582;2024-03-23T11:57:08;4.65;;;1.83;;
24557;SDS011;12726;49.148;8.582;2024-03-23T11:59:52;5.15;;;1.27;;
24557;SDS011;12726;49.148;8.582;2024-03-23T12:02:38;5.47;;;1.70;;
24557;SDS011;12726;49.148;8.582;2024-03-23T12:05:22;5.15;;;1.17;;
24557;SDS011;12726;49.148;8.582;2024-03-23T12:13:55;6.22;;;1.23;;
24557;SDS011;12726;49.148;8.582;2024-03-23T12:16:44;5.45;;;1.13;;
24557;SDS011;12726;49.148;8.582;2024-03-23T12:19:28;2.80;;;0.77;;
24557;SDS011;12726;49.148;8.582;2024-03-23T12:22:13;6.13;;;1.98;;
24557;SDS011;12726;49.148;8.582;2024-03-23T12:24:58;3.97;;;1.40;;
24557;SDS011;12726;49.148;8.582;2024-03-23T12:27:42;6.45;;;1.30;;
24557;SDS011;12726;49.148;8.582;2024-03-23T12:30:27;4.30;;;1.50;;
24557;SDS011;12726;49.148;8.582;2024-03-23T12:33:11;3.53;;;1.30;;
24557;SDS011;12726;49.148;8.582;2024-03-23T12:35:56;7.13;;;1.75;;
24557;SDS011;12726;49.148;8.582;2024-03-23T12:38:40;4.90;;;2.00;;
24557;SDS011;12726;49.148;8.582;2024-03-23T12:41:27;5.07;;;1.30;;
24557;SDS011;12726;49.148;8.582;2024-03-23T12:44:11;3.00;;;1.15;;
24557;SDS011;12726;49.148;8.582;2024-03-23T12:46:57;6.15;;;1.90;;
24557;SDS011;12726;49.148;8.582;2024-03-23T12:49:41;2.90;;;1.20;;
24557;SDS011;12726;49.148;8.582;2024-03-23T12:52:26;1.83;;;1.10;;
24557;SDS011;12726;49.148;8.582;2024-03-23T12:55:12;5.45;;;1.33;;
24557;SDS011;12726;49.148;8.582;2024-03-23T12:57:57;5.00;;;1.40;;
24557;SDS011;12726;49.148;8.582;2024-03-23T13:00:41;3.47;;;1.10;;
24557;SDS011;12726;49.148;8.582;2024-03-23T13:03:26;7.30;;;0.93;;
24557;SDS011;12726;49.148;8.582;2024-03-23T13:06:10;6.15;;;1.00;;
24557;SDS011;12726;49.148;8.582;2024-03-23T13:08:55;3.80;;;1.00;;
24557;SDS011;12726;49.148;8.582;2024-03-23T13:11:39;5.72;;;0.95;;
24557;SDS011;12726;49.148;8.582;2024-03-23T13:14:24;3.38;;;1.35;;
24557;SDS011;12726;49.148;8.582;2024-03-23T13:17:11;3.08;;;0.88;;
24557;SDS011;12726;49.148;8.582;2024-03-23T13:19:56;3.30;;;0.80;;
24557;SDS011;12726;49.148;8.582;2024-03-23T13:22:41;4.05;;;0.70;;
24557;SDS011;12726;49.148;8.582;2024-03-23T13:25:25;1.65;;;0.63;;
24557;SDS011;12726;49.148;8.582;2024-03-23T13:28:10;4.18;;;1.10;;
24557;SDS011;12726;49.148;8.582;2024-03-23T13:30:55;2.10;;;0.75;;
24557;SDS011;12726;49.148;8.582;2024-03-23T13:33:41;2.63;;;0.80;;
24557;SDS011;12726;49.148;8.582;2024-03-23T13:36:27;1.65;;;0.75;;
24557;SDS011;12726;49.148;8.582;2024-03-23T13:39:12;3.13;;;0.73;;
24557;SDS011;12726;49.148;8.582;2024-03-23T13:41:58;2.72;;;0.60;;
24557;SDS011;12726;49.148;8.582;2024-03-23T13:44:43;3.22;;;0.50;;
24557;SDS011;12726;49.148;8.582;2024-03-23T13:47:27;2.50;;;0.60;;
24557;SDS011;12726;49.148;8.582;2024-03-23T13:50:13;1.05;;;0.30;;
24557;SDS011;12726;49.148;8.582;2024-03-23T13:52:57;1.90;;;0.45;;
24557;SDS011;12726;49.148;8.582;2024-03-23T13:55:48;1.27;;;0.70;;
24557;SDS011;12726;49.148;8.582;2024-03-23T13:58:33;0.93;;;0.38;;
24557;SDS011;12726;49.148;8.582;2024-03-23T14:01:18;1.52;;;0.70;;
24557;SDS011;12726;49.148;8.582;2024-03-23T14:04:03;2.47;;;0.60;;
24557;SDS011;12726;49.148;8.582;2024-03-23T14:06:48;1.50;;;0.40;;
24557;SDS011;12726;49.148;8.582;2024-03-23T14:09:32;4.10;;;0.73;;
24557;SDS011;12726;49.148;8.582;2024-03-23T14:12:17;2.50;;;0.60;;
24557;SDS011;12726;49.148;8.582;2024-03-23T14:15:01;2.10;;;0.60;;
24557;SDS011;12726;49.148;8.582;2024-03-23T14:17:52;2.45;;;0.70;;
24557;SDS011;12726;49.148;8.582;2024-03-23T14:20:38;4.32;;;0.60;;
24557;SDS011;12726;49.148;8.582;2024-03-23T14:23:22;1.10;;;0.55;;
24557;SDS011;12726;49.148;8.582;2024-03-23T14:26:07;2.03;;;0.50;;
24557;SDS011;12726;49.148;8.582;2024-03-23T14:28:51;1.25;;;0.50;;
24557;SDS011;12726;49.148;8.582;2024-03-23T14:31:36;4.07;;;0.60;;
24557;SDS011;12726;49.148;8.582;2024-03-23T14:34:20;2.25;;;0.50;;
24557;SDS011;12726;49.148;8.582;2024-03-23T14:37:05;1.55;;;0.47;;
24557;SDS011;12726;49.148;8.582;2024-03-23T14:39:49;3.83;;;0.80;;
24557;SDS011;12726;49.148;8.582;2024-03-23T14:42:35;4.43;;;0.73;;
24557;SDS011;12726;49.148;8.582;2024-03-23T14:45:19;2.55;;;0.60;;
24557;SDS011;12726;49.148;8.582;2024-03-23T14:48:04;1.38;;;0.55;;
24557;SDS011;12726;49.148;8.582;2024-03-23T14:50:55;3.05;;;0.50;;
24557;SDS011;12726;49.148;8.582;2024-03-23T14:53:44;2.15;;;0.60;;
24557;SDS011;12726;49.148;8.582;2024-03-23T14:56:29;3.42;;;0.60;;
24557;SDS011;12726;49.148;8.582;2024-03-23T14:59:14;2.50;;;0.65;;
24557;SDS011;12726;49.148;8.582;2024-03-23T15:01:58;5.25;;;1.10;;
24557;SDS011;12726;49.148;8.582;2024-03-23T15:04:43;3.97;;;0.70;;
24557;SDS011;12726;49.148;8.582;2024-03-23T15:07:27;3.15;;;0.68;;
24557;SDS011;12726;49.148;8.582;2024-03-23T15:10:12;2.28;;;0.68;;
24557;SDS011;12726;49.148;8.582;2024-03-23T15:12:57;4.78;;;0.70;;
24557;SDS011;12726;49.148;8.582;2024-03-23T15:15:42;1.60;;;0.77;;
24557;SDS011;12726;49.148;8.582;2024-03-23T15:18:28;3.03;;;0.77;;
24557;SDS011;12726;49.148;8.582;2024-03-23T15:21:13;4.10;;;0.60;;
24557;SDS011;12726;49.148;8.582;2024-03-23T15:24:03;1.60;;;0.52;;
24557;SDS011;12726;49.148;8.582;2024-03-23T15:26:49;6.18;;;1.23;;
24557;SDS011;12726;49.148;8.582;2024-03-23T15:29:34;3.92;;;0.75;;
24557;SDS011;12726;49.148;8.582;2024-03-23T15:32:20;0.82;;;0.57;;
24557;SDS011;12726;49.148;8.582;2024-03-23T15:35:04;4.20;;;0.63;;
24557;SDS011;12726;49.148;8.582;2024-03-23T15:37:50;0.90;;;0.50;;
24557;SDS011;12726;49.148;8.582;2024-03-23T15:40:35;1.80;;;0.95;;
24557;SDS011;12726;49.148;8.582;2024-03-23T15:43:20;0.73;;;0.40;;
24557;SDS011;12726;49.148;8.582;2024-03-23T15:46:05;1.80;;;0.60;;
24557;SDS011;12726;49.148;8.582;2024-03-23T15:48:50;3.22;;;0.73;;
24557;SDS011;12726;49.148;8.582;2024-03-23T15:51:34;2.28;;;0.77;;
24557;SDS011;12726;49.148;8.582;2024-03-23T15:54:20;4.77;;;0.70;;
24557;SDS011;12726;49.148;8.582;2024-03-23T15:57:06;2.30;;;0.77;;
24557;SDS011;12726;49.148;8.582;2024-03-23T15:59:52;4.82;;;0.70;;
24557;SDS011;12726;49.148;8.582;2024-03-23T16:02:35;2.58;;;0.70;;
24557;SDS011;12726;49.148;8.582;2024-03-23T16:05:20;1.67;;;0.80;;
24557;SDS011;12726;49.148;8.582;2024-03-23T16:08:05;4.57;;;0.80;;
24557;SDS011;12726;49.148;8.582;2024-03-23T16:10:52;1.30;;;0.60;;
24557;SDS011;12726;49.148;8.582;2024-03-23T16:13:37;3.25;;;1.35;;
24557;SDS011;12726;49.148;8.582;2024-03-23T16:16:23;2.55;;;0.50;;
24557;SDS011;12726;49.148;8.582;2024-03-23T16:19:07;2.22;;;0.45;;
24557;SDS011;12726;49.148;8.582;2024-03-23T16:21:52;1.60;;;0.40;;
24557;SDS011;12726;49.148;8.582;2024-03-23T16:24:38;2.88;;;0.50;;
24557;SDS011;12726;49.148;8.582;2024-03-23T16:27:22;3.20;;;0.60;;
24557;SDS011;12726;49.148;8.582;2024-03-23T16:30:07;4.07;;;0.60;;
24557;SDS011;12726;49.148;8.582;2024-03-23T16:32:53;3.35;;;0.77;;
24557;SDS011;12726;49.148;8.582;2024-03-23T16:35:37;0.40;;;0.30;;
24557;SDS011;12726;49.148;8.582;2024-03-23T16:38:22;1.25;;;0.65;;
24557;SDS011;12726;49.148;8.582;2024-03-23T16:43:52;2.75;;;0.55;;
24557;SDS011;12726;49.148;8.582;2024-03-23T16:46:36;3.45;;;0.90;;
24557;SDS011;12726;49.148;8.582;2024-03-23T16:49:21;1.23;;;0.70;;
24557;SDS011;12726;49.148;8.582;2024-03-23T16:52:05;2.45;;;0.80;;
24557;SDS011;12726;49.148;8.582;2024-03-23T16:54:53;1.38;;;0.57;;
24557;SDS011;12726;49.148;8.582;2024-03-23T16:57:37;4.07;;;0.70;;
24557;SDS011;12726;49.148;8.582;2024-03-23T17:00:22;3.03;;;0.63;;
24557;SDS011;12726;49.148;8.582;2024-03-23T17:03:06;0.85;;;0.65;;
24557;SDS011;12726;49.148;8.582;2024-03-23T17:05:52;2.00;;;0.90;;
24557;SDS011;12726;49.148;8.582;2024-03-23T17:08:37;3.97;;;1.42;;
24557;SDS011;12726;49.148;8.582;2024-03-23T17:11:22;1.63;;;0.95;;
24557;SDS011;12726;49.148;8.582;2024-03-23T17:14:06;2.35;;;1.08;;
24557;SDS011;12726;49.148;8.582;2024-03-23T17:16:52;3.97;;;0.82;;
24557;SDS011;12726;49.148;8.582;2024-03-23T17:19:36;2.17;;;1.08;;
24557;SDS011;12726;49.148;8.582;2024-03-23T17:22:22;2.67;;;0.90;;
24557;SDS011;12726;49.148;8.582;2024-03-23T17:25:06;6.25;;;0.88;;
24557;SDS011;12726;49.148;8.582;2024-03-23T17:27:51;1.83;;;0.68;;
24557;SDS011;12726;49.148;8.582;2024-03-23T17:30:36;1.38;;;0.60;;
24557;SDS011;12726;49.148;8.582;2024-03-23T17:33:21;2.85;;;0.50;;
24557;SDS011;12726;49.148;8.582;2024-03-23T17:36:07;2.10;;;0.70;;
24557;SDS011;12726;49.148;8.582;2024-03-23T17:38:56;4.10;;;0.98;;
24557;SDS011;12726;49.148;8.582;2024-03-23T17:41:41;1.10;;;0.80;;
24557;SDS011;12726;49.148;8.582;2024-03-23T17:44:26;2.70;;;0.90;;